Time,TemperatureF,DewpointF,PressureIn,WindDirection,WindDirectionDegrees,WindSpeedMPH,WindSpeedGustMPH,Humidity,HourlyPrecipIn,Conditions,Clouds,dailyrainin,SoftwareType,DateUTC
2013-02-20 00:01:00,22.4,13.4,29.66,WNW,294,0.0,0.0,68,0.00,,,0.00,Wunderground v.1.15,2013-02-20 07:01:00,
2013-02-20 00:06:00,22.4,13.4,29.66,WNW,294,0.0,0.0,68,0.00,,,0.00,Wunderground v.1.15,2013-02-20 07:06:00,
2013-02-20 00:11:00,22.7,14.4,29.66,WNW,294,0.0,0.0,70,0.00,,,0.00,Wunderground v.1.15,2013-02-20 07:11:00,
2013-02-20 00:16:00,23.3,14.6,29.66,WNW,294,0.0,0.0,69,0.00,,,0.00,Wunderground v.1.15,2013-02-20 07:16:00,
2013-02-20 00:21:00,22.7,13.7,29.64,WNW,294,0.0,0.0,68,0.00,,,0.00,Wunderground v.1.15,2013-02-20 07:21:00,
2013-02-20 00:26:00,22.2,13.6,29.64,WNW,294,0.0,0.0,69,0.00,,,0.00,Wunderground v.1.15,2013-02-20 07:26:00,
2013-02-20 00:31:00,22.1,13.5,29.64,WNW,294,0.0,0.0,69,0.00,,,0.00,Wunderground v.1.15,2013-02-20 07:31:00,
2013-02-20 00:36:00,21.9,13.6,29.65,WNW,294,0.0,0.0,70,0.00,,,0.00,Wunderground v.1.15,2013-02-20 07:36:00,
2013-02-20 00:41:00,22.4,14.1,29.65,WNW,294,0.0,0.0,70,0.00,,,0.00,Wunderground v.1.15,2013-02-20 07:41:00,
2013-02-20 00:46:00,23.3,15.0,29.65,WNW,286,2.0,4.0,70,0.00,,,0.00,Wunderground v.1.15,2013-02-20 07:46:00,
2013-02-20 00:51:00,28.2,16.8,29.62,ESE,108,5.0,9.0,62,0.00,,,0.00,Wunderground v.1.15,2013-02-20 07:51:00,
2013-02-20 00:56:00,31.8,15.3,29.62,ESE,118,2.0,9.0,50,0.00,,,0.00,Wunderground v.1.15,2013-02-20 07:56:00,
2013-02-20 01:01:00,32.7,15.6,29.62,ESE,119,1.0,3.0,49,0.00,,,0.00,Wunderground v.1.15,2013-02-20 08:01:00,
2013-02-20 01:06:00,30.9,14.9,29.58,SE,130,3.0,4.0,51,0.00,,,0.00,Wunderground v.1.15,2013-02-20 08:06:00,
2013-02-20 01:11:00,29.8,14.7,29.58,SE,134,3.0,6.0,53,0.00,,,0.00,Wunderground v.1.15,2013-02-20 08:11:00,
2013-02-20 01:16:00,29.3,13.8,29.58,SE,130,1.0,6.0,52,0.00,,,0.00,Wunderground v.1.15,2013-02-20 08:16:00,
2013-02-20 01:21:00,30.4,13.5,29.59,ESE,122,2.0,3.0,49,0.00,,,0.00,Wunderground v.1.15,2013-02-20 08:21:00,
2013-02-20 01:26:00,32.2,12.2,29.59,ESE,110,4.0,6.0,43,0.00,,,0.00,Wunderground v.1.15,2013-02-20 08:26:00,
2013-02-20 01:31:00,33.1,11.9,29.59,ESE,113,1.0,6.0,41,0.00,,,0.00,Wunderground v.1.15,2013-02-20 08:31:00,
2013-02-20 01:36:00,33.4,12.2,29.58,East,94,3.0,6.0,41,0.00,,,0.00,Wunderground v.1.15,2013-02-20 08:36:00,
2013-02-20 01:41:00,33.2,12.6,29.58,SE,128,3.0,5.0,42,0.00,,,0.00,Wunderground v.1.15,2013-02-20 08:41:00,
2013-02-20 01:46:00,32.5,12.5,29.58,SE,143,2.0,5.0,43,0.00,,,0.00,Wunderground v.1.15,2013-02-20 08:46:00,
2013-02-20 01:51:00,31.5,13.1,29.58,SE,143,1.0,3.0,46,0.00,,,0.00,Wunderground v.1.15,2013-02-20 08:51:00,
2013-02-20 01:56:00,31.2,12.8,29.58,SE,142,2.0,4.0,46,0.00,,,0.00,Wunderground v.1.15,2013-02-20 08:56:00,
2013-02-20 02:01:00,31.0,13.1,29.58,SE,136,2.0,5.0,47,0.00,,,0.00,Wunderground v.1.15,2013-02-20 09:01:00,
2013-02-20 02:06:00,31.2,13.3,29.59,SE,134,2.0,5.0,47,0.00,,,0.00,Wunderground v.1.15,2013-02-20 09:06:00,
2013-02-20 02:11:00,30.4,13.5,29.59,SE,134,5.0,5.0,49,0.00,,,0.00,Wunderground v.1.15,2013-02-20 09:11:00,
2013-02-20 02:16:00,30.4,13.5,29.59,SE,134,3.0,6.0,49,0.00,,,0.00,Wunderground v.1.15,2013-02-20 09:16:00,
2013-02-20 02:21:00,31.5,13.1,29.58,ESE,121,2.0,7.0,46,0.00,,,0.00,Wunderground v.1.15,2013-02-20 09:21:00,
2013-02-20 02:26:00,32.7,12.6,29.58,SE,130,0.0,7.0,43,0.00,,,0.00,Wunderground v.1.15,2013-02-20 09:26:00,
2013-02-20 02:31:00,33.2,12.6,29.58,SE,126,3.0,3.0,42,0.00,,,0.00,Wunderground v.1.15,2013-02-20 09:31:00,
2013-02-20 02:36:00,33.4,12.7,29.56,SE,126,1.0,4.0,42,0.00,,,0.00,Wunderground v.1.15,2013-02-20 09:36:00,
2013-02-20 02:41:00,33.5,12.3,29.56,ESE,121,3.0,7.0,41,0.00,,,0.00,Wunderground v.1.15,2013-02-20 09:41:00,
2013-02-20 02:46:00,33.2,13.1,29.56,SSE,147,2.0,7.0,43,0.00,,,0.00,Wunderground v.1.15,2013-02-20 09:46:00,
2013-02-20 02:51:00,32.2,13.7,29.55,SSE,152,6.0,6.0,46,0.00,,,0.00,Wunderground v.1.15,2013-02-20 09:51:00,
2013-02-20 02:56:00,31.9,13.9,29.55,SSE,152,2.0,6.0,47,0.00,,,0.00,Wunderground v.1.15,2013-02-20 09:56:00,
2013-02-20 03:01:00,31.5,14.0,29.55,SSE,152,3.0,4.0,48,0.00,,,0.00,Wunderground v.1.15,2013-02-20 10:01:00,
2013-02-20 03:06:00,31.9,12.9,29.56,SE,146,6.0,9.0,45,0.00,,,0.00,Wunderground v.1.15,2013-02-20 10:06:00,
2013-02-20 03:11:00,32.8,12.2,29.56,SE,140,6.0,6.0,42,0.00,,,0.00,Wunderground v.1.15,2013-02-20 10:11:00,
2013-02-20 03:16:00,32.9,12.3,29.56,SE,137,5.0,9.0,42,0.00,,,0.00,Wunderground v.1.15,2013-02-20 10:16:00,
2013-02-20 03:21:00,33.5,11.7,29.56,SE,136,4.0,9.0,40,0.00,,,0.00,Wunderground v.1.15,2013-02-20 10:21:00,
2013-02-20 03:26:00,34.0,11.6,29.56,SE,145,5.0,12.0,39,0.00,,,0.00,Wunderground v.1.15,2013-02-20 10:26:00,
2013-02-20 03:31:00,33.1,12.5,29.56,SE,144,4.0,9.0,42,0.00,,,0.00,Wunderground v.1.15,2013-02-20 10:31:00,
2013-02-20 03:36:00,32.2,13.2,29.54,SSE,149,5.0,9.0,45,0.00,,,0.00,Wunderground v.1.15,2013-02-20 10:36:00,
2013-02-20 03:41:00,31.3,12.9,29.54,SE,143,6.0,8.0,46,0.00,,,0.00,Wunderground v.1.15,2013-02-20 10:41:00,
2013-02-20 03:46:00,32.5,11.4,29.54,SE,138,6.0,9.0,41,0.00,,,0.00,Wunderground v.1.15,2013-02-20 10:46:00,
2013-02-20 03:51:00,33.8,11.4,29.54,SE,126,5.0,10.0,39,0.00,,,0.00,Wunderground v.1.15,2013-02-20 10:51:00,
2013-02-20 03:56:00,33.4,11.6,29.54,ESE,109,9.0,11.0,40,0.00,,,0.00,Wunderground v.1.15,2013-02-20 10:56:00,
2013-02-20 04:01:00,33.4,12.2,29.54,South,172,6.0,9.0,41,0.00,,,0.00,Wunderground v.1.15,2013-02-20 11:01:00,
2013-02-20 04:06:00,32.9,12.3,29.54,SE,130,10.0,15.0,42,0.00,,,0.00,Wunderground v.1.15,2013-02-20 11:06:00,
2013-02-20 04:11:00,33.2,12.0,29.54,ESE,122,4.0,9.0,41,0.00,,,0.00,Wunderground v.1.15,2013-02-20 11:11:00,
2013-02-20 04:16:00,33.2,11.5,29.54,SE,124,9.0,10.0,40,0.00,,,0.00,Wunderground v.1.15,2013-02-20 11:16:00,
2013-02-20 04:21:00,33.1,11.4,29.56,SE,136,9.0,9.0,40,0.00,,,0.00,Wunderground v.1.15,2013-02-20 11:21:00,
2013-02-20 04:26:00,32.8,12.2,29.56,SE,142,4.0,9.0,42,0.00,,,0.00,Wunderground v.1.15,2013-02-20 11:26:00,
2013-02-20 04:31:00,32.2,12.7,29.56,SSE,147,4.0,9.0,44,0.00,,,0.00,Wunderground v.1.15,2013-02-20 11:31:00,
2013-02-20 04:36:00,31.9,12.9,29.57,SE,146,5.0,9.0,45,0.00,,,0.00,Wunderground v.1.15,2013-02-20 11:36:00,
2013-02-20 04:42:00,32.2,12.7,29.57,SE,146,5.0,7.0,44,0.00,,,0.00,Wunderground v.1.15,2013-02-20 11:42:00,
2013-02-20 04:47:00,32.4,12.4,29.57,SE,146,4.0,7.0,43,0.00,,,0.00,Wunderground v.1.15,2013-02-20 11:47:00,
2013-02-20 04:52:00,32.8,12.7,29.57,SE,144,7.0,7.0,43,0.00,,,0.00,Wunderground v.1.15,2013-02-20 11:52:00,
2013-02-20 04:57:00,33.2,12.6,29.57,SE,146,6.0,11.0,42,0.00,,,0.00,Wunderground v.1.15,2013-02-20 11:57:00,
2013-02-20 05:02:00,33.5,11.7,29.57,SSE,147,10.0,10.0,40,0.00,,,0.00,Wunderground v.1.15,2013-02-20 12:02:00,
2013-02-20 05:07:00,34.3,11.9,29.55,SSE,148,8.0,10.0,39,0.00,,,0.00,Wunderground v.1.15,2013-02-20 12:07:00,
2013-02-20 05:12:00,34.4,11.4,29.55,SE,131,3.0,10.0,38,0.00,,,0.00,Wunderground v.1.15,2013-02-20 12:12:00,
2013-02-20 05:17:00,34.6,11.6,29.55,SE,138,5.0,10.0,38,0.00,,,0.00,Wunderground v.1.15,2013-02-20 12:17:00,
2013-02-20 05:22:00,34.6,11.6,29.59,SE,139,7.0,10.0,38,0.00,,,0.00,Wunderground v.1.15,2013-02-20 12:22:00,
2013-02-20 05:27:00,34.3,11.3,29.59,SE,134,6.0,10.0,38,0.00,,,0.00,Wunderground v.1.15,2013-02-20 12:27:00,
2013-02-20 05:32:00,33.8,10.8,29.59,SE,145,7.0,10.0,38,0.00,,,0.00,Wunderground v.1.15,2013-02-20 12:32:00,
2013-02-20 05:37:00,33.8,11.4,29.59,SE,131,5.0,12.0,39,0.00,,,0.00,Wunderground v.1.15,2013-02-20 12:37:00,
2013-02-20 05:42:00,33.8,11.4,29.59,SSE,148,5.0,8.0,39,0.00,,,0.00,Wunderground v.1.15,2013-02-20 12:42:00,
2013-02-20 05:47:00,33.7,11.3,29.59,SE,145,2.0,8.0,39,0.00,,,0.00,Wunderground v.1.15,2013-02-20 12:47:00,
2013-02-20 05:52:00,33.4,11.6,29.59,SE,138,0.0,4.0,40,0.00,,,0.00,Wunderground v.1.15,2013-02-20 12:52:00,
2013-02-20 05:57:00,33.1,11.9,29.59,SE,138,0.0,4.0,41,0.00,,,0.00,Wunderground v.1.15,2013-02-20 12:57:00,
2013-02-20 06:02:00,32.8,11.6,29.59,SE,138,0.0,2.0,41,0.00,,,0.00,Wunderground v.1.15,2013-02-20 13:02:00,
2013-02-20 06:07:00,32.7,11.6,29.61,SE,138,0.0,2.0,41,0.00,,,0.00,Wunderground v.1.15,2013-02-20 13:07:00,
2013-02-20 06:12:00,32.8,11.1,29.61,ESE,119,1.0,5.0,40,0.00,,,0.00,Wunderground v.1.15,2013-02-20 13:12:00,
2013-02-20 06:17:00,32.5,11.9,29.61,ESE,119,0.0,5.0,42,0.00,,,0.00,Wunderground v.1.15,2013-02-20 13:17:00,
2013-02-20 06:22:00,32.2,12.7,29.66,ESE,119,0.0,1.0,44,0.00,,,0.00,Wunderground v.1.15,2013-02-20 13:22:00,
2013-02-20 06:27:00,31.6,12.7,29.66,ESE,119,0.0,1.0,45,0.00,,,0.00,Wunderground v.1.15,2013-02-20 13:27:00,
2013-02-20 06:32:00,30.9,12.5,29.66,ESE,119,0.0,0.0,46,0.00,,,0.00,Wunderground v.1.15,2013-02-20 13:32:00,
2013-02-20 06:37:00,30.0,12.2,29.66,ESE,119,0.0,2.0,47,0.00,,,0.00,Wunderground v.1.15,2013-02-20 13:37:00,
2013-02-20 06:42:00,29.1,11.8,29.66,ESE,119,0.0,0.0,48,0.00,,,0.00,Wunderground v.1.15,2013-02-20 13:42:00,
2013-02-20 06:47:00,28.4,11.6,29.66,ESE,119,0.0,0.0,49,0.00,,,0.00,Wunderground v.1.15,2013-02-20 13:47:00,
2013-02-20 06:52:00,27.8,12.0,29.68,ESE,119,0.0,0.0,51,0.00,,,0.00,Wunderground v.1.15,2013-02-20 13:52:00,
2013-02-20 06:57:00,27.8,12.0,29.68,ESE,119,0.0,0.0,51,0.00,,,0.00,Wunderground v.1.15,2013-02-20 13:57:00,
2013-02-20 07:02:00,27.3,12.0,29.68,ESE,119,0.0,0.0,52,0.00,,,0.00,Wunderground v.1.15,2013-02-20 14:02:00,
2013-02-20 07:07:00,27.0,12.1,29.67,ESE,119,0.0,0.0,53,0.00,,,0.00,Wunderground v.1.15,2013-02-20 14:07:00,
2013-02-20 07:12:00,26.7,11.8,29.67,ESE,119,0.0,0.0,53,0.00,,,0.00,Wunderground v.1.15,2013-02-20 14:12:00,
2013-02-20 07:17:00,26.6,12.2,29.67,ESE,119,0.0,0.0,54,0.00,,,0.00,Wunderground v.1.15,2013-02-20 14:17:00,
2013-02-20 07:22:00,26.6,12.2,29.68,ESE,119,0.0,0.0,54,0.00,,,0.00,Wunderground v.1.15,2013-02-20 14:22:00,
2013-02-20 07:27:00,26.7,12.7,29.68,ESE,119,0.0,0.0,55,0.00,,,0.00,Wunderground v.1.15,2013-02-20 14:27:00,
2013-02-20 07:32:00,26.9,13.3,29.68,ESE,119,0.0,0.0,56,0.00,,,0.00,Wunderground v.1.15,2013-02-20 14:32:00,
2013-02-20 07:37:00,27.0,13.4,29.69,ESE,119,2.0,3.0,56,0.00,,,0.00,Wunderground v.1.15,2013-02-20 14:37:00,
2013-02-20 07:42:00,27.3,13.7,29.69,ESE,119,0.0,1.0,56,0.00,,,0.00,Wunderground v.1.15,2013-02-20 14:42:00,
2013-02-20 07:47:00,27.8,14.1,29.69,ESE,119,0.0,1.0,56,0.00,,,0.00,Wunderground v.1.15,2013-02-20 14:47:00,
2013-02-20 07:52:00,28.4,13.9,29.68,ESE,119,0.0,0.0,54,0.00,,,0.00,Wunderground v.1.15,2013-02-20 14:52:00,
2013-02-20 07:57:00,29.0,14.0,29.68,ESE,119,0.0,2.0,53,0.00,,,0.00,Wunderground v.1.15,2013-02-20 14:57:00,
2013-02-20 08:02:00,30.3,14.3,29.68,ESE,120,2.0,3.0,51,0.00,,,0.00,Wunderground v.1.15,2013-02-20 15:02:00,
2013-02-20 08:07:00,31.6,14.6,29.66,ESE,120,1.0,4.0,49,0.00,,,0.00,Wunderground v.1.15,2013-02-20 15:07:00,
2013-02-20 08:12:00,32.4,14.9,29.66,ESE,120,1.0,4.0,48,0.00,,,0.00,Wunderground v.1.15,2013-02-20 15:12:00,
2013-02-20 08:17:00,33.2,14.1,29.66,ESE,120,4.0,5.0,45,0.00,,,0.00,Wunderground v.1.15,2013-02-20 15:17:00,
2013-02-20 08:22:00,34.3,14.1,29.65,ESE,121,5.0,5.0,43,0.00,,,0.00,Wunderground v.1.15,2013-02-20 15:22:00,
2013-02-20 08:27:00,35.0,13.1,29.65,SE,129,3.0,6.0,40,0.00,,,0.00,Wunderground v.1.15,2013-02-20 15:27:00,
2013-02-20 08:32:00,35.5,12.4,29.65,SE,129,2.0,5.0,38,0.00,,,0.00,Wunderground v.1.15,2013-02-20 15:32:00,
2013-02-20 08:37:00,35.6,13.6,29.64,SE,129,0.0,5.0,40,0.00,,,0.00,Wunderground v.1.15,2013-02-20 15:37:00,
2013-02-20 08:42:00,36.0,12.8,29.64,SE,129,3.0,3.0,38,0.00,,,0.00,Wunderground v.1.15,2013-02-20 15:42:00,
2013-02-20 08:47:00,36.5,13.3,29.64,SE,129,0.0,3.0,38,0.00,,,0.00,Wunderground v.1.15,2013-02-20 15:47:00,
2013-02-20 08:52:00,36.8,12.3,29.66,SE,129,0.0,4.0,36,0.00,,,0.00,Wunderground v.1.15,2013-02-20 15:52:00,
2013-02-20 08:57:00,37.2,12.7,29.66,SE,139,2.0,5.0,36,0.00,,,0.00,Wunderground v.1.15,2013-02-20 15:57:00,
2013-02-20 09:02:00,37.3,12.1,29.66,SE,139,2.0,4.0,35,0.00,,,0.00,Wunderground v.1.15,2013-02-20 16:02:00,
2013-02-20 09:07:00,37.5,11.6,29.65,SE,138,1.0,4.0,34,0.00,,,0.00,Wunderground v.1.15,2013-02-20 16:07:00,
2013-02-20 09:12:00,37.6,12.4,29.65,SE,138,2.0,2.0,35,0.00,,,0.00,Wunderground v.1.15,2013-02-20 16:12:00,
2013-02-20 09:17:00,37.6,12.4,29.65,SE,138,0.0,2.0,35,0.00,,,0.00,Wunderground v.1.15,2013-02-20 16:17:00,
2013-02-20 09:22:00,37.8,11.9,29.65,SE,138,0.0,1.0,34,0.00,,,0.00,Wunderground v.1.15,2013-02-20 16:22:00,
2013-02-20 09:27:00,38.2,12.3,29.65,SE,138,0.0,1.0,34,0.00,,,0.00,Wunderground v.1.15,2013-02-20 16:27:00,
2013-02-20 09:32:00,38.6,12.6,29.65,SE,138,0.0,0.0,34,0.00,,,0.00,Wunderground v.1.15,2013-02-20 16:32:00,
2013-02-20 09:37:00,38.9,12.2,29.64,SE,138,0.0,0.0,33,0.00,,,0.00,Wunderground v.1.15,2013-02-20 16:37:00,
2013-02-20 09:42:00,39.2,12.5,29.64,SE,138,1.0,2.0,33,0.00,,,0.00,Wunderground v.1.15,2013-02-20 16:42:00,
2013-02-20 09:47:00,39.6,12.1,29.64,SE,138,0.0,2.0,32,0.00,,,0.00,Wunderground v.1.15,2013-02-20 16:47:00,
2013-02-20 09:52:00,40.3,12.0,29.64,SE,138,0.0,2.0,31,0.00,,,0.00,Wunderground v.1.15,2013-02-20 16:52:00,
2013-02-20 09:57:00,40.8,12.5,29.64,SE,138,0.0,3.0,31,0.00,,,0.00,Wunderground v.1.15,2013-02-20 16:57:00,
2013-02-20 10:02:00,40.8,12.5,29.64,SE,138,4.0,4.0,31,0.00,,,0.00,Wunderground v.1.15,2013-02-20 17:02:00,
2013-02-20 10:07:00,40.9,12.5,29.64,SE,138,0.0,4.0,31,0.00,,,0.00,Wunderground v.1.15,2013-02-20 17:07:00,
2013-02-20 10:12:00,41.2,12.8,29.64,SE,138,0.0,2.0,31,0.00,,,0.00,Wunderground v.1.15,2013-02-20 17:12:00,
2013-02-20 10:17:00,41.3,12.1,29.64,SE,138,0.0,2.0,30,0.00,,,0.00,Wunderground v.1.15,2013-02-20 17:17:00,
2013-02-20 10:22:00,41.6,12.4,29.63,SE,138,0.0,0.0,30,0.00,,,0.00,Wunderground v.1.15,2013-02-20 17:22:00,
2013-02-20 10:27:00,42.1,12.8,29.63,SE,138,1.0,4.0,30,0.00,,,0.00,Wunderground v.1.15,2013-02-20 17:27:00,
2013-02-20 10:33:00,42.1,12.8,29.63,SE,138,1.0,2.0,30,0.00,,,0.00,Wunderground v.1.15,2013-02-20 17:33:00,
2013-02-20 10:37:00,42.8,13.5,29.63,SE,138,0.0,4.0,30,0.00,,,0.00,Wunderground v.1.15,2013-02-20 17:37:00,
2013-02-20 10:43:00,43.9,12.8,29.63,SE,138,0.0,2.0,28,0.00,,,0.00,Wunderground v.1.15,2013-02-20 17:43:00,
2013-02-20 10:47:00,44.1,13.0,29.63,ENE,69,3.0,6.0,28,0.00,,,0.00,Wunderground v.1.15,2013-02-20 17:47:00,
2013-02-20 10:53:00,43.8,12.8,29.62,ENE,68,3.0,6.0,28,0.00,,,0.00,Wunderground v.1.15,2013-02-20 17:53:00,
2013-02-20 10:58:00,43.6,12.6,29.62,ENE,61,3.0,9.0,28,0.00,,,0.00,Wunderground v.1.15,2013-02-20 17:58:00,
2013-02-20 11:03:00,43.3,12.3,29.62,ENE,61,0.0,4.0,28,0.00,,,0.00,Wunderground v.1.15,2013-02-20 18:03:00,
2013-02-20 11:08:00,43.5,11.7,29.62,ENE,75,2.0,4.0,27,0.00,,,0.00,Wunderground v.1.15,2013-02-20 18:08:00,
2013-02-20 11:13:00,43.8,11.9,29.62,ENE,71,3.0,4.0,27,0.00,,,0.00,Wunderground v.1.15,2013-02-20 18:13:00,
2013-02-20 11:18:00,43.9,12.8,29.62,ENE,70,4.0,4.0,28,0.00,,,0.00,Wunderground v.1.15,2013-02-20 18:18:00,
2013-02-20 11:23:00,43.8,11.9,29.62,ENE,64,1.0,5.0,27,0.00,,,0.00,Wunderground v.1.15,2013-02-20 18:23:00,
2013-02-20 11:28:00,43.9,12.0,29.62,ENE,68,1.0,5.0,27,0.00,,,0.00,Wunderground v.1.15,2013-02-20 18:28:00,
2013-02-20 11:33:00,44.2,12.3,29.62,East,82,0.0,3.0,27,0.00,,,0.00,Wunderground v.1.15,2013-02-20 18:33:00,
2013-02-20 11:38:00,44.3,11.5,29.61,ESE,119,1.0,5.0,26,0.00,,,0.00,Wunderground v.1.15,2013-02-20 18:38:00,
2013-02-20 11:43:00,44.3,11.5,29.61,ESE,119,0.0,2.0,26,0.00,,,0.00,Wunderground v.1.15,2013-02-20 18:43:00,
2013-02-20 11:48:00,44.5,12.5,29.61,ESE,119,0.0,2.0,27,0.00,,,0.00,Wunderground v.1.15,2013-02-20 18:48:00,
2013-02-20 11:53:00,44.3,12.4,29.60,ESE,119,0.0,1.0,27,0.00,,,0.00,Wunderground v.1.15,2013-02-20 18:53:00,
2013-02-20 11:58:00,44.5,12.5,29.60,ESE,119,0.0,1.0,27,0.00,,,0.00,Wunderground v.1.15,2013-02-20 18:58:00,
2013-02-20 12:03:00,44.5,12.5,29.60,ESE,119,0.0,0.0,27,0.00,,,0.00,Wunderground v.1.15,2013-02-20 19:03:00,
2013-02-20 12:08:00,44.6,12.6,29.60,ESE,119,0.0,1.0,27,0.00,,,0.00,Wunderground v.1.15,2013-02-20 19:08:00,
2013-02-20 12:13:00,44.6,11.8,29.60,ESE,119,0.0,0.0,26,0.00,,,0.00,Wunderground v.1.15,2013-02-20 19:13:00,
2013-02-20 12:18:00,44.9,12.9,29.60,SE,138,3.0,5.0,27,0.00,,,0.00,Wunderground v.1.15,2013-02-20 19:18:00,
2013-02-20 12:23:00,45.2,13.1,29.54,SE,145,1.0,2.0,27,0.00,,,0.00,Wunderground v.1.15,2013-02-20 19:23:00,
2013-02-20 12:28:00,45.7,13.6,29.54,West,281,2.0,5.0,27,0.00,,,0.00,Wunderground v.1.15,2013-02-20 19:28:00,
2013-02-20 12:33:00,46.0,13.0,29.54,SW,217,4.0,5.0,26,0.00,,,0.00,Wunderground v.1.15,2013-02-20 19:33:00,
2013-02-20 12:38:00,46.1,13.1,29.53,SW,215,0.0,5.0,26,0.00,,,0.00,Wunderground v.1.15,2013-02-20 19:38:00,
2013-02-20 12:43:00,46.4,13.3,29.53,SW,215,0.0,3.0,26,0.00,,,0.00,Wunderground v.1.15,2013-02-20 19:43:00,
2013-02-20 12:48:00,46.7,13.6,29.53,SW,215,0.0,3.0,26,0.00,,,0.00,Wunderground v.1.15,2013-02-20 19:48:00,
2013-02-20 12:53:00,47.4,15.0,29.51,SW,215,0.0,3.0,27,0.00,,,0.00,Wunderground v.1.15,2013-02-20 19:53:00,
2013-02-20 12:58:00,48.2,15.7,29.51,WSW,243,1.0,7.0,27,0.00,,,0.00,Wunderground v.1.15,2013-02-20 19:58:00,
2013-02-20 13:03:00,48.5,15.1,29.51,WSW,253,1.0,8.0,26,0.00,,,0.00,Wunderground v.1.15,2013-02-20 20:03:00,
2013-02-20 13:08:00,48.9,15.5,29.49,West,265,5.0,8.0,26,0.00,,,0.00,Wunderground v.1.15,2013-02-20 20:08:00,
2013-02-20 13:13:00,49.5,16.9,29.49,SW,225,2.0,10.0,27,0.00,,,0.00,Wunderground v.1.15,2013-02-20 20:13:00,
2013-02-20 13:18:00,49.2,19.0,29.49,WSW,243,3.0,12.0,30,0.00,,,0.00,Wunderground v.1.15,2013-02-20 20:18:00,
2013-02-20 13:23:00,48.6,19.3,29.49,WSW,239,6.0,12.0,31,0.00,,,0.00,Wunderground v.1.15,2013-02-20 20:23:00,
2013-02-20 13:28:00,48.5,19.2,29.49,West,279,6.0,12.0,31,0.00,,,0.00,Wunderground v.1.15,2013-02-20 20:28:00,
2013-02-20 13:33:00,48.6,18.5,29.49,SSW,209,4.0,10.0,30,0.00,,,0.00,Wunderground v.1.15,2013-02-20 20:33:00,
2013-02-20 13:38:00,48.3,19.8,29.48,SW,233,3.0,10.0,32,0.00,,,0.00,Wunderground v.1.15,2013-02-20 20:38:00,
2013-02-20 13:43:00,48.3,19.0,29.48,SW,219,7.0,9.0,31,0.00,,,0.00,Wunderground v.1.15,2013-02-20 20:43:00,
2013-02-20 13:48:00,48.3,19.8,29.48,WSW,242,5.0,9.0,32,0.00,,,0.00,Wunderground v.1.15,2013-02-20 20:48:00,
2013-02-20 13:53:00,48.6,19.3,29.48,South,190,9.0,10.0,31,0.00,,,0.00,Wunderground v.1.15,2013-02-20 20:53:00,
2013-02-20 13:58:00,48.2,18.9,29.48,SW,234,2.0,10.0,31,0.00,,,0.00,Wunderground v.1.15,2013-02-20 20:58:00,
2013-02-20 14:03:00,48.2,18.9,29.48,SW,219,4.0,5.0,31,0.00,,,0.00,Wunderground v.1.15,2013-02-20 21:03:00,
2013-02-20 14:08:00,48.3,19.8,29.48,SW,216,4.0,10.0,32,0.00,,,0.00,Wunderground v.1.15,2013-02-20 21:08:00,
2013-02-20 14:13:00,48.2,19.7,29.48,WSW,237,3.0,10.0,32,0.00,,,0.00,Wunderground v.1.15,2013-02-20 21:13:00,
2013-02-20 14:18:00,48.2,21.1,29.48,West,265,6.0,12.0,34,0.00,,,0.00,Wunderground v.1.15,2013-02-20 21:18:00,
2013-02-20 14:23:00,47.7,20.7,29.47,SSW,208,5.0,10.0,34,0.00,,,0.00,Wunderground v.1.15,2013-02-20 21:23:00,
2013-02-20 14:28:00,47.6,20.6,29.47,SSW,202,9.0,11.0,34,0.00,,,0.00,Wunderground v.1.15,2013-02-20 21:28:00,
2013-02-20 14:33:00,47.6,20.6,29.47,SSW,200,7.0,11.0,34,0.00,,,0.00,Wunderground v.1.15,2013-02-20 21:33:00,
2013-02-20 14:38:00,47.6,19.9,29.47,SW,217,2.0,11.0,33,0.00,,,0.00,Wunderground v.1.15,2013-02-20 21:38:00,
2013-02-20 14:43:00,47.9,20.1,29.47,SSW,205,7.0,11.0,33,0.00,,,0.00,Wunderground v.1.15,2013-02-20 21:43:00,
2013-02-20 14:48:00,47.7,20.0,29.47,South,188,5.0,11.0,33,0.00,,,0.00,Wunderground v.1.15,2013-02-20 21:48:00,
2013-02-20 14:53:00,47.7,19.2,29.47,WSW,242,5.0,11.0,32,0.00,,,0.00,Wunderground v.1.15,2013-02-20 21:53:00,
2013-02-20 14:58:00,47.7,19.2,29.47,SW,222,3.0,12.0,32,0.00,,,0.00,Wunderground v.1.15,2013-02-20 21:58:00,
2013-02-20 15:03:00,47.6,18.4,29.47,SW,228,5.0,10.0,31,0.00,,,0.00,Wunderground v.1.15,2013-02-20 22:03:00,
2013-02-20 15:08:00,47.4,18.2,29.47,SSW,197,1.0,10.0,31,0.00,,,0.00,Wunderground v.1.15,2013-02-20 22:08:00,
2013-02-20 15:13:00,47.6,20.6,29.47,SSW,207,7.0,10.0,34,0.00,,,0.00,Wunderground v.1.15,2013-02-20 22:13:00,
2013-02-20 15:18:00,47.7,20.7,29.47,SSW,207,6.0,10.0,34,0.00,,,0.00,Wunderground v.1.15,2013-02-20 22:18:00,
2013-02-20 15:23:00,47.4,20.4,29.47,SSW,207,7.0,10.0,34,0.00,,,0.00,Wunderground v.1.15,2013-02-20 22:23:00,
2013-02-20 15:28:00,47.1,20.8,29.47,SSW,207,3.0,10.0,35,0.00,,,0.00,Wunderground v.1.15,2013-02-20 22:28:00,
2013-02-20 15:33:00,47.0,20.0,29.47,SSW,213,2.0,8.0,34,0.00,,,0.00,Wunderground v.1.15,2013-02-20 22:33:00,
2013-02-20 15:38:00,46.8,19.9,29.47,SSW,207,4.0,8.0,34,0.00,,,0.00,Wunderground v.1.15,2013-02-20 22:38:00,
2013-02-20 15:44:00,46.7,20.5,29.47,SSW,208,1.0,6.0,35,0.00,,,0.00,Wunderground v.1.15,2013-02-20 22:44:00,
2013-02-20 15:49:00,46.5,20.3,29.47,WSW,250,3.0,7.0,35,0.00,,,0.00,Wunderground v.1.15,2013-02-20 22:49:00,
2013-02-20 15:54:00,46.4,20.2,29.47,SW,221,0.0,6.0,35,0.00,,,0.00,Wunderground v.1.15,2013-02-20 22:54:00,
2013-02-20 15:59:00,46.1,20.6,29.47,SW,221,3.0,6.0,36,0.00,,,0.00,Wunderground v.1.15,2013-02-20 22:59:00,
2013-02-20 16:04:00,46.0,21.1,29.47,SW,223,2.0,5.0,37,0.00,,,0.00,Wunderground v.1.15,2013-02-20 23:04:00,
2013-02-20 16:09:00,45.8,20.3,29.48,SW,223,4.0,8.0,36,0.00,,,0.00,Wunderground v.1.15,2013-02-20 23:09:00,
2013-02-20 16:14:00,45.7,20.9,29.48,SW,219,2.0,5.0,37,0.00,,,0.00,Wunderground v.1.15,2013-02-20 23:14:00,
2013-02-20 16:19:00,45.5,20.7,29.48,SSW,206,1.0,6.0,37,0.00,,,0.00,Wunderground v.1.15,2013-02-20 23:19:00,
2013-02-20 16:24:00,45.4,20.0,29.47,South,186,0.0,9.0,36,0.00,,,0.00,Wunderground v.1.15,2013-02-20 23:24:00,
2013-02-20 16:29:00,45.4,20.0,29.47,SSW,202,1.0,9.0,36,0.00,,,0.00,Wunderground v.1.15,2013-02-20 23:29:00,
2013-02-20 16:34:00,45.4,20.0,29.47,SW,236,7.0,7.0,36,0.00,,,0.00,Wunderground v.1.15,2013-02-20 23:34:00,
2013-02-20 16:39:00,45.2,19.1,29.48,SSW,202,1.0,11.0,35,0.00,,,0.00,Wunderground v.1.15,2013-02-20 23:39:00,
2013-02-20 16:44:00,45.1,19.7,29.48,SSW,203,1.0,7.0,36,0.00,,,0.00,Wunderground v.1.15,2013-02-20 23:44:00,
2013-02-20 16:49:00,44.9,19.5,29.48,South,185,7.0,7.0,36,0.00,,,0.00,Wunderground v.1.15,2013-02-20 23:49:00,
2013-02-20 16:54:00,44.8,20.1,29.48,SSW,212,4.0,12.0,37,0.00,,,0.00,Wunderground v.1.15,2013-02-20 23:54:00,
2013-02-20 16:59:00,44.6,19.9,29.48,SSW,201,2.0,12.0,37,0.00,,,0.00,Wunderground v.1.15,2013-02-20 23:59:00,
2013-02-20 17:04:00,44.6,19.9,29.48,SSW,206,2.0,9.0,37,0.00,,,0.00,Wunderground v.1.15,2013-02-21 00:04:00,
2013-02-20 17:09:00,44.5,20.4,29.48,South,187,2.0,10.0,38,0.00,,,0.00,Wunderground v.1.15,2013-02-21 00:09:00,
2013-02-20 17:14:00,44.5,20.4,29.48,South,191,0.0,9.0,38,0.00,,,0.00,Wunderground v.1.15,2013-02-21 00:14:00,
2013-02-20 17:19:00,44.5,20.4,29.49,SSE,165,5.0,9.0,38,0.00,,,0.00,Wunderground v.1.15,2013-02-21 00:19:00,
2013-02-20 17:24:00,44.3,20.3,29.49,South,188,0.0,5.0,38,0.00,,,0.00,Wunderground v.1.15,2013-02-21 00:24:00,
2013-02-20 17:29:00,44.3,20.9,29.49,SSW,206,6.0,10.0,39,0.00,,,0.00,Wunderground v.1.15,2013-02-21 00:29:00,
2013-02-20 17:34:00,44.3,20.3,29.50,South,178,1.0,9.0,38,0.00,,,0.00,Wunderground v.1.15,2013-02-21 00:34:00,
2013-02-20 17:39:00,44.3,20.3,29.50,South,179,1.0,11.0,38,0.00,,,0.00,Wunderground v.1.15,2013-02-21 00:39:00,
2013-02-20 17:44:00,44.2,20.2,29.50,South,180,3.0,13.0,38,0.00,,,0.00,Wunderground v.1.15,2013-02-21 00:44:00,
2013-02-20 17:49:00,44.2,20.2,29.50,SSW,196,2.0,13.0,38,0.00,,,0.00,Wunderground v.1.15,2013-02-21 00:49:00,
2013-02-20 17:55:00,44.1,20.1,29.50,SSE,168,6.0,9.0,38,0.00,,,0.00,Wunderground v.1.15,2013-02-21 00:55:00,
2013-02-20 17:59:00,44.1,20.1,29.50,South,184,1.0,9.0,38,0.00,,,0.00,Wunderground v.1.15,2013-02-21 00:59:00,
2013-02-20 18:05:00,43.9,19.9,29.51,South,180,1.0,5.0,38,0.00,,,0.00,Wunderground v.1.15,2013-02-21 01:05:00,
2013-02-20 18:10:00,43.9,19.3,29.51,South,179,5.0,7.0,37,0.00,,,0.00,Wunderground v.1.15,2013-02-21 01:10:00,
2013-02-20 18:15:00,43.9,19.3,29.51,SSW,194,0.0,9.0,37,0.00,,,0.00,Wunderground v.1.15,2013-02-21 01:15:00,
2013-02-20 18:20:00,43.8,19.2,29.54,SSW,194,0.0,2.0,37,0.00,,,0.00,Wunderground v.1.15,2013-02-21 01:20:00,
2013-02-20 18:25:00,43.6,19.6,29.54,SSW,194,0.0,2.0,38,0.00,,,0.00,Wunderground v.1.15,2013-02-21 01:25:00,
2013-02-20 18:30:00,43.3,19.4,29.54,SSW,194,0.0,0.0,38,0.00,,,0.00,Wunderground v.1.15,2013-02-21 01:30:00,
2013-02-20 18:35:00,43.2,19.3,29.56,SW,229,1.0,4.0,38,0.00,,,0.00,Wunderground v.1.15,2013-02-21 01:35:00,
2013-02-20 18:40:00,43.1,19.2,29.56,SW,229,0.0,1.0,38,0.00,,,0.00,Wunderground v.1.15,2013-02-21 01:40:00,
2013-02-20 18:45:00,42.9,19.0,29.56,WNW,288,2.0,7.0,38,0.00,,,0.00,Wunderground v.1.15,2013-02-21 01:45:00,
2013-02-20 18:50:00,43.1,19.2,29.56,SW,222,2.0,2.0,38,0.00,,,0.00,Wunderground v.1.15,2013-02-21 01:50:00,
2013-02-20 18:55:00,43.2,19.3,29.56,WSW,250,1.0,4.0,38,0.00,,,0.00,Wunderground v.1.15,2013-02-21 01:55:00,
2013-02-20 19:00:00,43.1,20.4,29.56,NNW,346,9.0,11.0,40,0.00,,,0.00,Wunderground v.1.15,2013-02-21 02:00:00,
2013-02-20 19:05:00,42.9,23.0,29.57,NNE,24,6.0,11.0,45,0.00,,,0.00,Wunderground v.1.15,2013-02-21 02:05:00,
2013-02-20 19:10:00,42.5,24.2,29.57,East,81,1.0,5.0,48,0.00,,,0.00,Wunderground v.1.15,2013-02-21 02:10:00,
2013-02-20 19:15:00,41.9,25.1,29.57,East,98,2.0,5.0,51,0.00,,,0.00,Wunderground v.1.15,2013-02-21 02:15:00,
2013-02-20 19:20:00,41.3,25.4,29.56,East,90,4.0,10.0,53,0.00,,,0.00,Wunderground v.1.15,2013-02-21 02:20:00,
2013-02-20 19:25:00,40.9,26.4,29.56,ENE,74,4.0,11.0,56,0.00,,,0.00,Wunderground v.1.15,2013-02-21 02:25:00,
2013-02-20 19:30:00,40.5,26.9,29.56,ENE,77,7.0,10.0,58,0.00,,,0.00,Wunderground v.1.15,2013-02-21 02:30:00,
2013-02-20 19:35:00,40.1,27.3,29.58,ENE,72,6.0,12.0,60,0.00,,,0.00,Wunderground v.1.15,2013-02-21 02:35:00,
2013-02-20 19:40:00,39.8,27.4,29.58,ENE,72,6.0,8.0,61,0.00,,,0.00,Wunderground v.1.15,2013-02-21 02:40:00,
2013-02-20 19:45:00,39.5,27.9,29.58,ENE,68,6.0,8.0,63,0.00,,,0.00,Wunderground v.1.15,2013-02-21 02:45:00,
2013-02-20 19:50:00,39.3,27.7,29.59,East,92,4.0,6.0,63,0.00,,,0.00,Wunderground v.1.15,2013-02-21 02:50:00,
2013-02-20 19:55:00,39.3,27.7,29.59,SE,126,0.0,7.0,63,0.00,,,0.00,Wunderground v.1.15,2013-02-21 02:55:00,
2013-02-20 20:00:00,39.2,28.0,29.59,SSE,161,2.0,4.0,64,0.00,,,0.00,Wunderground v.1.15,2013-02-21 03:00:00,
2013-02-20 20:05:00,39.1,27.9,29.59,South,185,1.0,10.0,64,0.00,,,0.00,Wunderground v.1.15,2013-02-21 03:05:00,
2013-02-20 20:10:00,38.9,27.8,29.59,South,184,0.0,2.0,64,0.00,,,0.00,Wunderground v.1.15,2013-02-21 03:10:00,
2013-02-20 20:15:00,38.8,28.0,29.59,SSE,159,1.0,6.0,65,0.00,,,0.00,Wunderground v.1.15,2013-02-21 03:15:00,
2013-02-20 20:20:00,38.8,27.7,29.56,SSE,159,0.0,1.0,64,0.00,,,0.00,Wunderground v.1.15,2013-02-21 03:20:00,
2013-02-20 20:25:00,38.8,27.7,29.56,SSE,147,2.0,2.0,64,0.00,,,0.00,Wunderground v.1.15,2013-02-21 03:25:00,
2013-02-20 20:30:00,38.6,27.5,29.56,SE,146,1.0,1.0,64,0.00,,,0.00,Wunderground v.1.15,2013-02-21 03:30:00,
2013-02-20 20:35:00,38.6,27.5,29.56,SE,146,0.0,2.0,64,0.00,,,0.00,Wunderground v.1.15,2013-02-21 03:35:00,
2013-02-20 20:40:00,38.5,26.6,29.56,SE,146,0.0,0.0,62,0.00,,,0.00,Wunderground v.1.15,2013-02-21 03:40:00,
2013-02-20 20:45:00,38.6,26.3,29.56,SE,146,0.0,0.0,61,0.00,,,0.00,Wunderground v.1.15,2013-02-21 03:45:00,
2013-02-20 20:50:00,38.2,25.9,29.57,SE,146,0.0,0.0,61,0.00,,,0.00,Wunderground v.1.15,2013-02-21 03:50:00,
2013-02-20 20:55:00,37.8,25.5,29.57,SE,146,0.0,0.0,61,0.00,,,0.00,Wunderground v.1.15,2013-02-21 03:55:00,
2013-02-20 21:00:00,37.5,26.0,29.57,SE,146,0.0,0.0,63,0.00,,,0.00,Wunderground v.1.15,2013-02-21 04:00:00,
2013-02-20 21:05:00,37.2,25.4,29.57,SE,146,0.0,0.0,62,0.00,,,0.00,Wunderground v.1.15,2013-02-21 04:05:00,
2013-02-20 21:10:00,37.2,25.8,29.57,SE,146,0.0,1.0,63,0.00,,,0.00,Wunderground v.1.15,2013-02-21 04:10:00,
2013-02-20 21:15:00,37.6,26.1,29.57,SE,144,1.0,3.0,63,0.00,,,0.00,Wunderground v.1.15,2013-02-21 04:15:00,
2013-02-20 21:20:00,38.0,26.5,29.56,SE,142,0.0,1.0,63,0.00,,,0.00,Wunderground v.1.15,2013-02-21 04:20:00,
2013-02-20 21:25:00,38.2,26.7,29.56,SE,137,1.0,3.0,63,0.00,,,0.00,Wunderground v.1.15,2013-02-21 04:25:00,
2013-02-20 21:30:00,38.2,27.1,29.56,SE,136,0.0,2.0,64,0.00,,,0.00,Wunderground v.1.15,2013-02-21 04:30:00,
2013-02-20 21:35:00,38.2,27.1,29.57,East,88,4.0,4.0,64,0.00,,,0.00,Wunderground v.1.15,2013-02-21 04:35:00,
2013-02-20 21:40:00,38.3,27.2,29.57,East,83,1.0,3.0,64,0.00,,,0.00,Wunderground v.1.15,2013-02-21 04:40:00,
2013-02-20 21:45:00,38.3,27.2,29.57,East,88,2.0,4.0,64,0.00,,,0.00,Wunderground v.1.15,2013-02-21 04:45:00,
2013-02-20 21:50:00,38.5,27.4,29.56,ENE,78,4.0,4.0,64,0.00,,,0.00,Wunderground v.1.15,2013-02-21 04:50:00,
2013-02-20 21:55:00,38.5,27.4,29.56,East,92,2.0,4.0,64,0.00,,,0.00,Wunderground v.1.15,2013-02-21 04:55:00,
2013-02-20 22:00:00,38.5,27.4,29.56,East,96,2.0,2.0,64,0.00,,,0.00,Wunderground v.1.15,2013-02-21 05:00:00,
2013-02-20 22:05:00,38.5,27.4,29.56,East,98,1.0,3.0,64,0.00,,,0.00,Wunderground v.1.15,2013-02-21 05:05:00,
2013-02-20 22:10:00,38.2,27.1,29.56,East,98,0.0,1.0,64,0.00,,,0.00,Wunderground v.1.15,2013-02-21 05:10:00,
2013-02-20 22:15:00,38.2,27.1,29.56,East,101,1.0,3.0,64,0.00,,,0.00,Wunderground v.1.15,2013-02-21 05:15:00,
2013-02-20 22:20:00,37.9,27.2,29.56,East,101,0.0,1.0,65,0.00,,,0.00,Wunderground v.1.15,2013-02-21 05:20:00,
2013-02-20 22:25:00,37.6,26.5,29.56,East,101,0.0,1.0,64,0.00,,,0.00,Wunderground v.1.15,2013-02-21 05:25:00,
2013-02-20 22:30:00,37.0,26.3,29.56,East,101,0.0,0.0,65,0.00,,,0.00,Wunderground v.1.15,2013-02-21 05:30:00,
2013-02-20 22:35:00,36.9,26.6,29.56,East,101,0.0,2.0,66,0.00,,,0.00,Wunderground v.1.15,2013-02-21 05:35:00,
2013-02-20 22:40:00,37.3,25.5,29.56,SE,144,0.0,1.0,62,0.00,,,0.00,Wunderground v.1.15,2013-02-21 05:40:00,
2013-02-20 22:45:00,37.8,24.3,29.56,South,179,2.0,6.0,58,0.00,,,0.00,Wunderground v.1.15,2013-02-21 05:45:00,
2013-02-20 22:50:00,38.3,23.5,29.56,SSW,213,0.0,3.0,55,0.00,,,0.00,Wunderground v.1.15,2013-02-21 05:50:00,
2013-02-20 22:56:00,38.9,23.7,29.56,SW,219,5.0,5.0,54,0.00,,,0.00,Wunderground v.1.15,2013-02-21 05:56:00,
2013-02-20 23:01:00,39.3,23.1,29.56,WSW,238,3.0,10.0,52,0.00,,,0.00,Wunderground v.1.15,2013-02-21 06:01:00,
2013-02-20 23:06:00,39.6,22.9,29.55,SW,219,0.0,10.0,51,0.00,,,0.00,Wunderground v.1.15,2013-02-21 06:06:00,
2013-02-20 23:11:00,39.6,22.5,29.55,SSW,198,0.0,7.0,50,0.00,,,0.00,Wunderground v.1.15,2013-02-21 06:11:00,
2013-02-20 23:16:00,39.8,22.7,29.55,South,187,1.0,13.0,50,0.00,,,0.00,Wunderground v.1.15,2013-02-21 06:16:00,
2013-02-20 23:21:00,39.8,22.7,29.54,South,174,1.0,5.0,50,0.00,,,0.00,Wunderground v.1.15,2013-02-21 06:21:00,
2013-02-20 23:26:00,39.9,22.7,29.54,SSW,197,0.0,8.0,50,0.00,,,0.00,Wunderground v.1.15,2013-02-21 06:26:00,
2013-02-20 23:31:00,39.8,23.1,29.54,SSW,197,0.0,1.0,51,0.00,,,0.00,Wunderground v.1.15,2013-02-21 06:31:00,
2013-02-20 23:36:00,39.6,22.9,29.54,SW,232,1.0,12.0,51,0.00,,,0.00,Wunderground v.1.15,2013-02-21 06:36:00,
2013-02-20 23:41:00,39.6,22.5,29.54,South,190,0.0,4.0,50,0.00,,,0.00,Wunderground v.1.15,2013-02-21 06:41:00,
2013-02-20 23:46:00,39.6,22.5,29.54,WSW,238,2.0,5.0,50,0.00,,,0.00,Wunderground v.1.15,2013-02-21 06:46:00,
2013-02-20 23:51:00,39.5,22.8,29.54,West,265,1.0,5.0,51,0.00,,,0.00,Wunderground v.1.15,2013-02-21 06:51:00,
2013-02-20 23:56:00,39.3,22.2,29.54,WSW,251,1.0,9.0,50,0.00,,,0.00,Wunderground v.1.15,2013-02-21 06:56:00,